Time;durP1;ratioP1;P1;durP2;ratioP2;P2;SDS_P1;SDS_P2;PMS_P1;PMS_P2;Temp;Humidity;BMP_temperature;BMP_pressure;BME280_temperature;BME280_humidity;BME280_pressure;Samples;Min_cycle;Max_cycle;Signal;HPM_P1;HPM_P2
2021/11/21 00:01:54;;;;;;;11.97;10.70;;;14.70;99.90;;;15.29;55.37;101136.78;4910455;28;98107;-45
2021/11/21 00:04:20;;;;;;;13.20;11.60;;;14.70;99.90;;;15.36;54.51;101124.06;4908422;28;101271;-50
2021/11/21 00:06:46;;;;;;;18.07;15.57;;;14.80;99.90;;;15.40;55.02;101125.63;4906279;28;102613;-46
2021/11/21 00:09:12;;;;;;;13.33;11.87;;;14.80;99.90;;;15.42;54.32;101123.75;4907909;28;97704;-50
2021/11/21 00:11:38;;;;;;;22.80;20.27;;;14.90;99.90;;;15.27;51.62;101120.03;4902898;28;97333;-47
2021/11/21 00:14:06;;;;;;;27.17;22.63;;;14.80;99.90;;;15.28;51.98;101121.78;4906002;28;98837;-47
2021/11/21 00:16:33;;;;;;;16.43;14.70;;;14.80;99.90;;;15.41;54.80;101122.91;4903707;28;99495;-45
2021/11/21 00:19:00;;;;;;;8.13;7.33;;;14.80;99.90;;;15.41;55.10;101117.59;4911207;28;97004;-44
2021/11/21 00:21:26;;;;;;;26.77;21.33;;;14.80;99.90;;;15.39;52.34;101113.28;4904447;28;97457;-49
2021/11/21 00:23:53;;;;;;;19.27;16.67;;;14.90;99.90;;;15.43;53.31;101102.41;4908330;28;100674;-43
2021/11/21 00:26:20;;;;;;;26.70;21.27;;;14.80;99.90;;;15.38;52.84;101088.50;4909596;28;97336;-48
2021/11/21 00:28:46;;;;;;;23.53;19.87;;;14.80;99.90;;;15.28;53.68;101083.69;4921550;28;97191;-49
2021/11/21 00:31:12;;;;;;;11.27;10.17;;;14.70;99.90;;;15.24;55.27;101079.47;4908811;28;98539;-48
2021/11/21 00:33:38;;;;;;;21.27;18.40;;;14.60;99.90;;;15.27;55.36;101082.84;4912483;28;99133;-46
2021/11/21 00:36:04;;;;;;;25.30;21.93;;;14.60;99.90;;;15.06;53.78;101075.91;4912050;28;98466;-49
2021/11/21 00:38:30;;;;;;;16.63;14.73;;;14.50;99.90;;;15.17;55.61;101066.47;4904700;28;99700;-47
2021/11/21 00:40:56;;;;;;;8.27;7.43;;;14.60;99.90;;;15.24;55.45;101071.50;4912873;28;97849;-46
2021/11/21 00:43:22;;;;;;;20.93;17.10;;;14.60;99.90;;;15.27;52.36;101071.34;4919963;28;100748;-49
2021/11/21 00:45:49;;;;;;;24.10;20.70;;;14.70;99.90;;;15.31;54.38;101068.47;4908610;28;96983;-43
2021/11/21 00:48:21;;;;;;;14.60;12.90;;;14.70;99.90;;;15.36;54.74;101060.28;4910636;28;98744;-46
2021/11/21 00:50:49;;;;;;;12.97;10.50;;;14.80;99.90;;;15.50;54.49;101056.94;4911524;28;99688;-45
2021/11/21 00:53:16;;;;;;;13.57;11.37;;;14.90;99.90;;;15.45;54.62;101049.19;4907275;28;102527;-48
2021/11/21 00:55:47;;;;;;;11.40;9.97;;;14.90;99.90;;;15.42;53.16;101057.31;4909767;28;98800;-46
2021/11/21 00:58:13;;;;;;;12.37;10.83;;;14.80;99.90;;;15.39;54.96;101055.66;4915457;28;99076;-48
2021/11/21 01:00:44;;;;;;;16.63;13.93;;;14.80;99.90;;;15.42;52.60;101049.34;4909774;28;97140;-49
2021/11/21 01:03:14;;;;;;;13.30;11.77;;;14.80;99.90;;;15.53;55.02;101047.00;4908406;28;99954;-45
2021/11/21 01:05:42;;;;;;;23.50;19.63;;;14.90;99.90;;;15.57;54.31;101045.91;4907381;28;99508;-49
2021/11/21 01:08:09;;;;;;;26.67;21.33;;;14.90;99.90;;;15.68;54.52;101051.59;4908697;28;99051;-43
2021/11/21 01:10:35;;;;;;;14.27;11.97;;;15.10;99.90;;;15.79;54.34;101043.06;4902169;28;98556;-44
2021/11/21 01:13:03;;;;;;;17.73;15.27;;;15.30;99.90;;;15.89;53.91;101038.13;4923522;28;99162;-45
2021/11/21 01:15:29;;;;;;;17.17;14.83;;;15.40;99.90;;;15.95;53.79;101032.50;4901726;28;99061;-45
2021/11/21 01:17:56;;;;;;;26.60;21.77;;;15.40;99.90;;;15.95;53.44;101033.34;4906996;28;98821;-45
2021/11/21 01:20:26;;;;;;;25.17;22.47;;;15.40;99.90;;;15.91;53.45;101031.81;4918696;28;97591;-46
2021/11/21 01:22:53;;;;;;;31.63;26.50;;;15.30;99.90;;;15.91;53.61;101038.91;4911956;28;99731;-46
2021/11/21 01:25:20;;;;;;;22.23;18.83;;;15.20;99.90;;;15.96;53.45;101039.53;4908709;28;99231;-49
2021/11/21 01:27:46;;;;;;;24.63;20.97;;;15.30;99.90;;;15.97;52.07;101030.63;4902574;28;100406;-49
2021/11/21 01:30:17;;;;;;;9.63;8.33;;;15.40;99.90;;;15.98;53.61;101035.00;4913948;28;100886;-45
2021/11/21 01:32:43;;;;;;;18.80;16.80;;;15.40;99.90;;;15.99;53.30;101034.91;4902573;28;98041;-44
2021/11/21 01:35:10;;;;;;;21.03;18.57;;;15.40;99.90;;;15.96;53.39;101034.22;4923074;28;99798;-47
2021/11/21 01:37:37;;;;;;;16.63;14.87;;;15.30;99.90;;;15.93;53.74;101029.94;4903279;28;98087;-46
2021/11/21 01:40:07;;;;;;;11.87;10.57;;;15.30;99.90;;;15.91;53.65;101021.16;4907190;28;98132;-46
2021/11/21 01:42:33;;;;;;;25.60;22.73;;;15.20;99.90;;;15.86;53.08;101019.66;4910281;28;100792;-46
2021/11/21 01:44:59;;;;;;;16.67;14.27;;;15.20;99.90;;;15.83;53.60;101011.84;4903913;28;97828;-43
2021/11/21 01:47:26;;;;;;;18.30;16.20;;;15.10;99.90;;;15.82;53.88;101016.31;4921129;28;97903;-49
2021/11/21 01:49:52;;;;;;;22.63;18.00;;;15.10;99.90;;;15.79;53.70;101008.50;4904593;28;98405;-43
2021/11/21 01:52:17;;;;;;;15.17;13.47;;;15.10;99.90;;;15.76;53.93;101006.81;4904017;28;98987;-44
2021/11/21 01:54:43;;;;;;;18.83;16.07;;;15.00;99.90;;;15.75;54.14;100999.78;4902539;28;99407;-45
2021/11/21 01:57:12;;;;;;;24.70;20.43;;;15.00;99.90;;;15.74;53.63;100991.91;4902498;28;98619;-50
2021/11/21 01:59:39;;;;;;;12.30;10.70;;;15.00;99.90;;;15.73;54.45;100993.69;4905773;28;97053;-48
2021/11/21 02:02:05;;;;;;;22.33;19.63;;;15.00;99.90;;;15.76;54.33;100993.53;4905125;28;98505;-51
2021/11/21 02:04:31;;;;;;;18.10;14.60;;;15.00;99.90;;;15.79;54.06;100983.69;4902172;28;99234;-48
2021/11/21 02:06:57;;;;;;;21.60;17.37;;;15.10;99.90;;;15.81;54.22;100976.50;4923893;28;100444;-43
2021/11/21 02:09:22;;;;;;;20.53;17.60;;;15.20;99.90;;;15.82;54.09;100968.44;4903387;28;97923;-43
2021/11/21 02:11:48;;;;;;;21.27;17.47;;;15.20;99.90;;;15.85;53.96;100967.41;4914972;28;99514;-43
2021/11/21 02:14:14;;;;;;;17.73;15.87;;;15.20;99.90;;;15.86;53.95;100963.81;4925218;28;97927;-46
2021/11/21 02:16:40;;;;;;;23.70;19.37;;;15.20;99.90;;;15.84;53.72;100968.34;4903308;28;98373;-44
2021/11/21 02:19:06;;;;;;;23.37;18.53;;;15.10;99.90;;;15.74;53.93;100960.84;4905617;28;97884;-44
2021/11/21 02:21:32;;;;;;;23.87;19.97;;;15.00;99.90;;;15.73;54.14;100964.44;4917740;28;97778;-46
2021/11/21 02:23:59;;;;;;;25.07;20.30;;;15.00;99.90;;;15.70;54.38;100959.28;4912008;28;99003;-44
2021/11/21 02:26:25;;;;;;;25.80;21.13;;;14.90;99.90;;;15.72;54.50;100962.72;4904025;28;97942;-43
2021/11/21 02:28:53;;;;;;;13.47;12.03;;;15.00;99.90;;;15.74;54.32;100950.19;4923513;28;97795;-43
2021/11/21 02:31:20;;;;;;;14.50;12.60;;;15.00;99.90;;;15.80;54.26;100945.53;4897143;28;97725;-43
2021/11/21 02:33:49;;;;;;;25.67;20.73;;;15.10;99.90;;;15.75;54.20;100951.91;4900751;28;104288;-43
2021/11/21 02:36:16;;;;;;;22.27;18.43;;;15.10;99.90;;;15.76;54.12;100950.97;4904497;28;98133;-43
2021/11/21 02:38:42;;;;;;;18.17;15.77;;;15.10;99.90;;;15.77;54.22;100942.09;4900378;28;97762;-42
2021/11/21 02:41:10;;;;;;;18.37;15.27;;;15.10;99.90;;;15.79;54.32;100936.69;4905177;28;99809;-42
2021/11/21 02:43:39;;;;;;;21.50;17.70;;;15.00;99.90;;;15.82;54.11;100940.97;4907744;28;98404;-43
2021/11/21 02:46:05;;;;;;;21.97;17.93;;;15.10;99.90;;;15.83;53.96;100937.38;4921553;28;98194;-46
2021/11/21 02:48:34;;;;;;;13.03;11.70;;;15.10;99.90;;;15.87;54.28;100933.59;4908663;28;97279;-43
2021/11/21 02:51:03;;;;;;;18.17;14.73;;;15.20;99.90;;;15.91;54.09;100935.16;4903119;28;98703;-45
2021/11/21 02:53:33;;;;;;;17.53;14.83;;;15.20;99.90;;;15.95;53.70;100931.41;4900650;28;98780;-43
2021/11/21 02:56:08;;;;;;;15.70;13.30;;;15.30;99.90;;;16.00;53.95;100924.03;4912866;28;97412;-43
2021/11/21 02:58:35;;;;;;;28.50;23.00;;;15.40;99.90;;;16.02;53.43;100923.00;4915021;28;97131;-43
2021/11/21 03:01:19;;;;;;;27.50;22.30;;;15.40;99.90;;;16.06;53.45;100929.03;4911758;28;100029;-43
2021/11/21 03:03:45;;;;;;;11.57;10.37;;;15.40;99.90;;;16.06;53.59;100918.38;4902582;28;103163;-42
2021/11/21 03:06:11;;;;;;;25.37;22.27;;;15.40;99.90;;;16.06;53.65;100913.94;4902848;28;96897;-42
2021/11/21 03:08:39;;;;;;;23.40;19.43;;;15.40;99.90;;;16.10;53.65;100911.94;4917513;28;99471;-43
2021/11/21 03:11:27;;;;;;;9.13;8.10;;;15.50;99.90;;;16.13;53.39;100901.13;4903715;28;99835;-42
2021/11/21 03:13:54;;;;;;;25.40;22.13;;;15.50;99.90;;;16.13;53.38;100909.13;4917691;28;100022;-42
2021/11/21 03:16:19;;;;;;;21.73;19.43;;;15.50;99.90;;;16.14;53.16;100904.66;4907156;28;97407;-43
2021/11/21 03:18:45;;;;;;;16.27;13.87;;;15.50;99.90;;;16.15;53.49;100901.91;4903210;28;102738;-44
2021/11/21 03:21:12;;;;;;;25.90;21.03;;;15.50;99.90;;;16.11;52.13;100905.69;4905085;28;97144;-44
2021/11/21 03:23:39;;;;;;;21.53;18.90;;;15.50;99.90;;;16.11;53.43;100905.69;4904508;28;96830;-43
2021/11/21 03:26:05;;;;;;;24.13;21.23;;;15.50;99.90;;;16.14;53.14;100894.00;4926581;28;102052;-44
2021/11/21 03:28:31;;;;;;;25.07;21.87;;;15.60;99.90;;;16.18;53.06;100899.06;4927333;28;97118;-43
2021/11/21 03:30:57;;;;;;;23.30;19.83;;;15.70;99.90;;;16.23;53.12;100888.19;4923618;28;98725;-43
2021/11/21 03:33:23;;;;;;;23.33;19.80;;;15.80;99.90;;;16.18;51.70;100880.44;4928981;28;98407;-42
2021/11/21 03:35:49;;;;;;;23.13;20.53;;;15.70;99.90;;;16.14;53.22;100884.22;4936343;28;97346;-46
2021/11/21 03:38:15;;;;;;;13.53;10.40;;;15.60;99.90;;;16.18;53.19;100880.44;4926420;28;96749;-43
2021/11/21 03:40:41;;;;;;;26.27;21.40;;;15.60;99.90;;;16.21;52.95;100888.28;4926368;28;99626;-44
2021/11/21 03:43:06;;;;;;;14.60;13.03;;;15.70;99.90;;;16.29;53.03;100882.50;4933516;28;97407;-43
2021/11/21 03:45:33;;;;;;;24.80;20.10;;;15.90;99.90;;;16.29;52.88;100879.84;4928920;28;97590;-44
2021/11/21 03:47:59;;;;;;;19.47;17.07;;;15.90;99.90;;;16.30;50.76;100885.09;4939363;28;97270;-43
2021/11/21 03:50:26;;;;;;;18.93;16.93;;;16.00;99.90;;;16.34;52.52;100883.97;4924060;28;99498;-44
2021/11/21 03:52:52;;;;;;;14.83;13.33;;;16.00;99.90;;;16.40;52.59;100869.47;4937149;28;98654;-44
2021/11/21 03:55:19;;;;;;;23.90;21.30;;;16.10;99.90;;;16.42;52.03;100872.03;4936716;28;97228;-44
2021/11/21 03:57:47;;;;;;;16.63;14.87;;;16.10;99.90;;;16.46;52.63;100866.44;4929095;28;97032;-43
2021/11/21 04:00:18;;;;;;;20.43;18.23;;;16.10;99.90;;;16.48;52.36;100866.34;4935253;28;100755;-43
2021/11/21 04:02:45;;;;;;;24.20;21.53;;;16.20;99.90;;;16.46;50.57;100862.91;4935853;28;99037;-43
2021/11/21 04:05:12;;;;;;;22.50;19.30;;;16.20;99.00;;;16.56;52.20;100864.97;4951245;28;97869;-43
2021/11/21 04:07:40;;;;;;;21.53;17.53;;;16.30;99.90;;;16.64;51.77;100857.44;4935670;28;97371;-44
2021/11/21 04:10:07;;;;;;;21.90;18.33;;;16.40;99.90;;;16.67;49.73;100856.41;4935030;28;97607;-42
2021/11/21 04:12:34;;;;;;;16.73;15.00;;;16.50;99.20;;;16.57;51.84;100850.72;4937411;28;98445;-45
2021/11/21 04:15:00;;;;;;;22.37;19.23;;;16.30;99.90;;;16.58;49.55;100846.25;4947750;28;97398;-42
2021/11/21 04:17:28;;;;;;;20.43;18.23;;;16.30;99.00;;;16.57;52.12;100839.22;4933542;28;97032;-44
2021/11/21 04:19:54;;;;;;;20.63;18.43;;;16.30;99.90;;;16.61;51.99;100843.41;4932508;28;98745;-43
2021/11/21 04:22:20;;;;;;;22.57;19.67;;;16.40;99.90;;;16.55;51.72;100838.44;4936094;28;99105;-46
2021/11/21 04:24:47;;;;;;;23.17;20.07;;;16.20;99.90;;;16.61;51.87;100830.94;4931479;28;114343;-43
2021/11/21 04:27:13;;;;;;;13.50;12.10;;;16.30;99.90;;;16.62;51.61;100827.34;4932337;28;97228;-42
2021/11/21 04:29:39;;;;;;;23.27;20.77;;;16.30;99.90;;;16.61;50.83;100830.09;4929451;28;97570;-42
2021/11/21 04:32:05;;;;;;;18.63;16.50;;;16.30;99.10;;;16.62;51.51;100821.16;4946487;28;98457;-44
2021/11/21 04:34:31;;;;;;;22.03;19.63;;;16.30;99.80;;;16.64;50.09;100824.63;4934163;28;97145;-42
2021/11/21 04:36:59;;;;;;;21.13;18.70;;;16.40;98.60;;;16.65;51.72;100826.31;4943001;28;97694;-44
2021/11/21 04:39:26;;;;;;;22.70;18.97;;;16.40;99.90;;;16.56;51.61;100817.06;4928599;28;97560;-43
2021/11/21 04:41:53;;;;;;;20.67;18.27;;;16.20;99.90;;;16.52;52.01;100822.66;4935737;28;99866;-42
2021/11/21 04:44:21;;;;;;;18.83;16.80;;;16.10;99.90;;;16.50;51.53;100811.22;4928632;28;96945;-42
2021/11/21 04:46:47;;;;;;;20.37;18.17;;;16.20;99.90;;;16.55;51.77;100814.47;4932356;28;96869;-43
2021/11/21 04:49:13;;;;;;;15.90;14.23;;;16.30;99.90;;;16.63;51.71;100813.06;4934081;28;101041;-44
2021/11/21 04:51:41;;;;;;;20.77;18.57;;;16.40;99.90;;;16.68;51.59;100812.00;4927816;28;99035;-43
2021/11/21 04:54:14;;;;;;;19.90;17.67;;;16.50;99.70;;;16.65;51.46;100811.19;4949287;28;97291;-44
2021/11/21 04:56:40;;;;;;;20.10;17.87;;;16.40;99.90;;;16.67;51.32;100811.16;4918745;28;99940;-44
2021/11/21 04:59:06;;;;;;;21.53;18.60;;;16.40;99.20;;;16.70;51.71;100810.09;4935586;28;97515;-43
2021/11/21 05:01:31;;;;;;;22.07;18.60;;;16.40;99.50;;;16.72;51.50;100809.06;4923460;28;101779;-43
2021/11/21 05:03:57;;;;;;;14.97;13.40;;;16.50;99.80;;;16.76;51.52;100802.59;4932638;28;97136;-43
2021/11/21 05:06:23;;;;;;;18.17;15.93;;;16.50;99.90;;;16.74;51.37;100799.16;4917469;28;97485;-44
2021/11/21 05:08:49;;;;;;;20.60;18.33;;;16.50;99.50;;;16.78;51.23;100798.06;4933947;28;98681;-44
2021/11/21 05:11:15;;;;;;;20.90;18.60;;;16.60;99.70;;;16.77;51.34;100793.66;4933828;28;97102;-43
2021/11/21 05:13:41;;;;;;;20.67;18.20;;;16.50;99.50;;;16.74;51.02;100788.50;4925723;28;96892;-43
2021/11/21 05:16:06;;;;;;;20.43;18.23;;;16.50;99.00;;;16.66;49.91;100796.06;4930147;28;98023;-42
2021/11/21 05:18:32;;;;;;;21.97;19.03;;;16.40;98.40;;;16.66;nan;100796.06;4926776;28;96930;-42
2021/11/21 05:20:58;;;;;;;13.50;12.07;;;16.40;98.90;;;16.46;51.76;100789.22;4930952;28;97305;-43
2021/11/21 05:23:24;;;;;;;12.30;10.97;;;16.10;99.50;;;16.42;52.24;100793.03;4930019;28;97231;-42
2021/11/21 05:25:50;;;;;;;15.17;12.97;;;16.00;99.90;;;16.34;52.14;100780.13;4931782;28;96948;-44
2021/11/21 05:28:16;;;;;;;19.13;16.00;;;15.90;99.90;;;16.14;52.86;100783.09;4934316;28;97713;-43
2021/11/21 05:30:47;;;;;;;13.90;12.47;;;15.70;99.90;;;16.13;52.99;100777.88;4929261;28;98082;-42
2021/11/21 05:33:14;;;;;;;16.30;14.53;;;15.60;99.90;;;16.17;51.36;100766.94;4942521;28;96897;-42
2021/11/21 05:35:40;;;;;;;18.23;16.00;;;15.70;99.90;;;16.23;52.70;100777.25;4928288;28;99349;-47
2021/11/21 05:38:06;;;;;;;20.03;17.23;;;15.80;99.90;;;16.25;52.78;100779.84;4936341;28;99632;-44
2021/11/21 05:40:32;;;;;;;19.53;15.93;;;15.80;99.90;;;16.26;52.57;100774.41;4910365;28;98428;-43
2021/11/21 05:42:57;;;;;;;13.67;12.20;;;15.90;99.90;;;16.31;52.63;100775.00;4935926;28;97266;-44
2021/11/21 05:45:24;;;;;;;20.07;16.87;;;15.90;99.90;;;16.43;52.32;100777.91;4933809;28;96937;-46
2021/11/21 05:47:50;;;;;;;18.83;14.80;;;16.10;99.90;;;16.50;52.23;100779.28;4933358;28;97651;-42
2021/11/21 05:50:16;;;;;;;16.20;14.50;;;16.20;99.90;;;16.57;51.97;100780.63;4913566;28;98016;-42
2021/11/21 05:52:48;;;;;;;17.43;14.73;;;16.30;99.90;;;16.61;51.72;100766.19;4928146;28;97485;-44
2021/11/21 05:55:17;;;;;;;18.50;14.03;;;16.40;99.90;;;16.66;51.74;100774.78;4931378;28;96461;-44
2021/11/21 05:57:55;;;;;;;19.17;15.57;;;16.50;99.90;;;16.65;51.58;100767.72;4925659;28;98290;-45
2021/11/21 06:00:25;;;;;;;13.47;12.03;;;16.40;99.90;;;16.70;51.51;100768.34;4924519;28;98415;-50
2021/11/21 06:02:52;;;;;;;19.50;15.50;;;16.40;99.90;;;16.70;51.28;100770.16;4932087;28;99226;-44
2021/11/21 06:05:19;;;;;;;17.17;14.87;;;16.40;99.00;;;16.70;51.74;100770.16;4918741;28;96923;-42
2021/11/21 06:07:45;;;;;;;17.43;15.53;;;16.40;99.90;;;16.69;51.74;100774.63;4926764;28;103071;-43
2021/11/21 06:10:12;;;;;;;16.73;15.03;;;16.40;99.70;;;16.71;51.31;100771.84;4932016;28;98459;-43
2021/11/21 06:12:39;;;;;;;17.27;15.23;;;16.40;99.90;;;16.68;51.61;100778.22;4926138;28;98000;-43
2021/11/21 06:15:08;;;;;;;15.47;13.50;;;16.30;99.90;;;16.69;51.50;100774.63;4946230;28;97747;-42
2021/11/21 06:17:35;;;;;;;13.53;11.67;;;16.40;99.50;;;16.63;51.52;100764.28;4924386;28;100638;-43
2021/11/21 06:20:02;;;;;;;14.73;13.23;;;16.20;99.50;;;16.49;51.80;100766.88;4943139;28;97227;-44
2021/11/21 06:22:28;;;;;;;16.63;14.20;;;16.00;99.90;;;16.51;52.09;100765.88;4925391;28;97382;-42
2021/11/21 06:24:54;;;;;;;17.20;13.23;;;16.10;99.90;;;16.51;52.10;100759.69;4928677;28;97215;-44
2021/11/21 06:27:20;;;;;;;11.13;9.93;;;16.10;99.90;;;16.55;51.80;100750.56;4927106;28;101158;-47
2021/11/21 06:29:46;;;;;;;14.97;13.33;;;16.20;99.90;;;16.50;51.99;100752.66;4932966;28;102609;-43
2021/11/21 06:32:12;;;;;;;13.73;11.43;;;16.20;99.90;;;16.55;51.78;100750.56;4949276;28;97005;-42
2021/11/21 06:34:38;;;;;;;10.40;9.30;;;16.20;99.90;;;16.56;51.88;100746.97;4957199;28;97419;-43
2021/11/21 06:37:06;;;;;;;13.07;11.67;;;16.30;99.80;;;16.59;51.75;100746.78;4931570;28;99695;-44
2021/11/21 06:39:33;;;;;;;6.83;6.13;;;16.30;99.90;;;16.57;51.80;100748.66;4929930;28;99194;-44
2021/11/21 06:41:59;;;;;;;14.53;12.57;;;16.20;99.90;;;16.52;51.51;100751.63;4932797;28;97627;-43
2021/11/21 06:44:25;;;;;;;14.97;13.13;;;16.20;99.80;;;16.44;50.25;100755.66;4927034;28;97413;-45
2021/11/21 06:46:51;;;;;;;14.60;11.90;;;16.10;98.90;;;16.40;50.29;100757.66;4930895;28;99759;-44
2021/11/21 06:49:17;;;;;;;15.00;12.53;;;16.00;99.60;;;16.30;51.84;100751.13;4952116;28;99002;-45
2021/11/21 06:51:44;;;;;;;15.60;13.70;;;15.80;99.90;;;16.27;49.54;100746.00;4944116;28;97038;-42
2021/11/21 06:54:11;;;;;;;13.67;11.30;;;15.90;99.60;;;16.28;52.45;100748.56;4932087;28;97017;-44
2021/11/21 06:56:38;;;;;;;15.53;13.50;;;15.90;99.90;;;16.30;51.50;100741.34;4930166;28;99804;-42
2021/11/21 06:59:05;;;;;;;14.00;12.47;;;16.00;99.30;;;16.36;52.42;100735.69;4930762;28;97034;-43
2021/11/21 07:01:31;;;;;;;13.20;10.60;;;16.10;99.90;;;16.46;52.24;100740.44;4929098;28;99025;-42
2021/11/21 07:03:56;;;;;;;10.77;9.73;;;16.20;99.90;;;16.49;51.65;100745.59;4927518;28;97051;-43
2021/11/21 07:06:33;;;;;;;15.23;13.10;;;16.20;99.90;;;16.53;51.45;100747.16;4938041;28;97032;-42
2021/11/21 07:08:59;;;;;;;16.70;13.93;;;16.30;99.30;;;16.51;51.71;100754.38;4936648;28;97750;-42
2021/11/21 07:11:25;;;;;;;13.70;12.30;;;16.20;99.90;;;16.48;51.66;100751.88;4941414;28;96812;-42
2021/11/21 07:13:51;;;;;;;14.53;12.67;;;16.10;99.90;;;16.49;52.01;100750.91;4930081;28;97729;-43
2021/11/21 07:16:16;;;;;;;10.63;9.47;;;16.10;99.90;;;16.53;51.92;100747.16;4924703;28;98653;-43
2021/11/21 07:18:42;;;;;;;13.70;12.20;;;16.20;99.90;;;16.55;51.63;100742.59;4922784;28;97654;-43
2021/11/21 07:21:08;;;;;;;16.17;13.57;;;16.30;99.60;;;16.55;50.91;100734.59;4934782;28;97282;-44
2021/11/21 07:23:35;;;;;;;9.73;8.73;;;16.30;98.80;;;16.40;51.57;100735.50;4944377;28;97136;-47
2021/11/21 07:26:03;;;;;;;13.87;12.40;;;16.00;99.40;;;16.39;51.36;100733.78;4925982;28;99790;-43
2021/11/21 07:28:30;;;;;;;15.63;12.83;;;16.00;99.60;;;16.40;51.94;100736.34;4930182;28;99124;-43
2021/11/21 07:30:56;;;;;;;9.97;8.93;;;16.00;99.90;;;16.42;52.33;100744.25;4931390;28;98536;-42
2021/11/21 07:33:22;;;;;;;10.83;9.77;;;16.10;99.90;;;16.26;51.12;100750.47;4930633;28;97109;-42
2021/11/21 07:35:48;;;;;;;16.73;13.90;;;15.90;99.10;;;16.25;51.44;100746.09;4935440;28;97313;-43
2021/11/21 07:38:14;;;;;;;16.27;14.47;;;15.90;99.30;;;16.10;51.35;100749.63;4929642;28;97267;-45
2021/11/21 07:40:40;;;;;;;18.93;16.00;;;15.70;99.20;;;15.86;53.09;100745.69;4951793;28;96950;-43
2021/11/21 07:43:06;;;;;;;18.37;15.27;;;15.30;99.90;;;15.78;51.00;100754.13;4935638;28;97265;-45
2021/11/21 07:45:32;;;;;;;16.80;14.90;;;15.30;99.90;;;15.81;53.64;100758.41;4952295;28;98798;-43
2021/11/21 07:47:58;;;;;;;18.53;15.30;;;15.20;99.90;;;15.80;52.95;100754.03;4929941;28;97317;-42
2021/11/21 07:50:24;;;;;;;17.60;15.20;;;15.30;99.90;;;15.85;53.89;100757.28;4931079;28;96944;-43
2021/11/21 07:52:49;;;;;;;18.87;15.90;;;15.30;99.90;;;15.77;52.81;100757.72;4931367;28;97135;-43
2021/11/21 07:55:15;;;;;;;19.77;15.53;;;15.20;99.90;;;15.70;52.62;100759.84;4944798;28;100803;-42
2021/11/21 07:57:41;;;;;;;20.27;16.00;;;15.10;99.90;;;15.68;52.60;100759.06;4935508;28;97015;-42
2021/11/21 08:00:12;;;;;;;18.07;14.90;;;15.20;99.90;;;15.75;53.91;100763.09;4935001;28;97720;-43
2021/11/21 08:02:38;;;;;;;18.43;16.03;;;15.30;99.90;;;15.61;53.10;100763.00;4942090;28;96733;-42
2021/11/21 08:05:06;;;;;;;18.97;16.30;;;15.20;99.90;;;15.62;53.54;100756.75;4932252;28;99308;-44
2021/11/21 08:07:31;;;;;;;21.77;17.17;;;15.20;99.90;;;15.50;54.05;100761.84;4939332;28;96723;-44
2021/11/21 08:09:57;;;;;;;20.73;17.60;;;15.10;99.90;;;15.50;54.50;100770.69;4933459;28;97192;-43
2021/11/21 08:12:23;;;;;;;20.40;17.53;;;15.00;99.90;;;15.38;54.30;100766.03;4944310;28;96951;-43
2021/11/21 08:14:49;;;;;;;20.50;17.63;;;14.90;99.90;;;15.48;54.66;100769.91;4935140;28;98674;-43
2021/11/21 08:17:17;;;;;;;19.83;16.03;;;15.00;99.90;;;15.48;54.45;100760.13;4935773;28;98950;-44
2021/11/21 08:19:43;;;;;;;20.40;16.70;;;15.00;99.90;;;15.61;54.13;100768.31;4924359;28;96904;-43
2021/11/21 08:22:09;;;;;;;18.80;16.80;;;15.20;99.90;;;15.70;54.16;100761.66;4935863;28;97305;-46
2021/11/21 08:24:35;;;;;;;20.53;16.50;;;15.30;99.90;;;15.77;54.01;100774.53;4925856;28;97609;-43
2021/11/21 08:27:01;;;;;;;18.70;16.17;;;15.40;99.90;;;15.84;53.60;100768.88;4922304;28;98487;-42
2021/11/21 08:29:27;;;;;;;19.80;16.77;;;15.50;99.90;;;15.93;53.59;100784.31;4924949;28;98121;-42
2021/11/21 08:31:53;;;;;;;19.27;16.23;;;15.50;99.90;;;15.98;53.33;100775.13;4934884;28;97173;-43
2021/11/21 08:34:20;;;;;;;21.23;17.33;;;15.60;99.90;;;16.05;52.98;100772.97;4931532;28;97611;-44
2021/11/21 08:36:45;;;;;;;20.47;16.97;;;15.70;99.90;;;15.94;51.24;100770.94;4923508;28;104942;-43
2021/11/21 08:39:12;;;;;;;22.83;18.13;;;15.70;99.90;;;15.86;53.31;100766.97;4928720;28;97513;-42
2021/11/21 08:41:38;;;;;;;19.43;16.37;;;15.40;99.90;;;15.91;53.25;100778.19;4942278;28;96943;-46
2021/11/21 08:44:04;;;;;;;20.07;16.33;;;15.40;99.90;;;15.98;53.42;100766.28;4935301;28;97641;-44
2021/11/21 08:46:29;;;;;;;18.77;16.77;;;15.60;99.90;;;16.01;53.07;100766.09;4921925;28;97254;-43
2021/11/21 08:48:55;;;;;;;18.27;16.13;;;15.60;99.90;;;15.87;51.67;100768.69;4931297;28;99215;-42
2021/11/21 08:51:22;;;;;;;20.67;17.43;;;15.50;99.90;;;15.59;53.49;100770.19;4931077;28;97544;-49
2021/11/21 08:53:48;;;;;;;18.17;15.90;;;15.10;99.90;;;15.63;52.69;100765.59;4940862;28;98597;-42
2021/11/21 08:56:18;;;;;;;19.73;16.10;;;15.10;99.90;;;15.71;54.10;100756.25;4932834;28;98366;-43
2021/11/21 08:58:44;;;;;;;18.03;15.27;;;15.20;99.90;;;15.77;53.72;100761.22;4940056;28;97017;-43
2021/11/21 09:01:11;;;;;;;18.57;15.70;;;15.30;99.90;;;15.80;54.12;100762.00;4937396;28;97366;-43
2021/11/21 09:03:39;;;;;;;17.37;14.03;;;15.30;99.90;;;15.84;53.30;100764.41;4937028;28;96976;-42
2021/11/21 09:06:05;;;;;;;16.90;14.13;;;15.40;99.90;;;15.91;53.51;100759.56;4934176;28;99260;-42
2021/11/21 09:08:31;;;;;;;19.87;15.70;;;15.50;99.90;;;15.86;52.66;100764.31;4938340;28;97418;-44
2021/11/21 09:10:57;;;;;;;17.67;14.97;;;15.40;99.90;;;15.84;53.74;100766.19;4933566;28;97079;-44
2021/11/21 09:13:23;;;;;;;18.27;15.10;;;15.30;99.90;;;15.81;53.55;100758.41;4955669;28;97588;-44
2021/11/21 09:15:50;;;;;;;19.23;15.00;;;15.30;99.90;;;15.78;54.24;100764.75;4934357;28;97029;-43
2021/11/21 09:18:16;;;;;;;16.80;14.37;;;15.20;99.90;;;15.78;54.23;100764.75;4956616;28;97169;-42
2021/11/21 09:20:42;;;;;;;18.57;15.13;;;15.20;99.90;;;15.73;52.74;100754.34;4931104;28;97185;-45
2021/11/21 09:23:12;;;;;;;20.07;15.57;;;15.20;99.90;;;15.76;54.17;100756.81;4939662;28;96928;-42
2021/11/21 09:25:39;;;;;;;16.70;14.30;;;15.20;99.90;;;15.74;54.35;100769.34;4929977;28;97233;-43
2021/11/21 09:28:05;;;;;;;16.80;15.00;;;15.10;99.90;;;15.79;53.88;100765.59;4933060;28;97339;-42
2021/11/21 09:30:33;;;;;;;17.13;14.20;;;15.20;99.90;;;15.81;53.73;100769.03;4925022;28;97111;-41
2021/11/21 09:32:58;;;;;;;19.90;15.17;;;15.30;99.90;;;15.70;53.43;100766.97;4930913;28;97704;-42
2021/11/21 09:35:24;;;;;;;16.57;13.93;;;15.10;99.90;;;15.71;54.37;100772.19;4929460;28;103792;-43
2021/11/21 09:37:51;;;;;;;16.07;13.60;;;15.10;99.90;;;15.59;54.13;100774.63;4925423;28;97139;-42
2021/11/21 09:40:17;;;;;;;18.10;15.60;;;14.90;99.90;;;15.57;54.29;100777.38;4915133;28;100091;-42
2021/11/21 09:42:46;;;;;;;17.37;14.83;;;14.90;99.90;;;15.50;54.94;100769.84;4940086;28;98904;-42
2021/11/21 09:45:14;;;;;;;17.80;14.40;;;14.80;99.90;;;15.43;55.09;100770.16;4942367;28;97201;-42
2021/11/21 09:47:40;;;;;;;17.07;14.43;;;14.70;99.90;;;15.37;54.99;100772.28;4924520;28;97302;-44
2021/11/21 09:50:12;;;;;;;19.00;14.63;;;14.60;99.90;;;15.10;53.94;100775.47;4952517;28;97154;-43
2021/11/21 09:52:38;;;;;;;18.33;15.40;;;14.50;99.90;;;14.82;54.89;100772.53;4922451;28;97703;-42
2021/11/21 09:55:06;;;;;;;20.07;16.73;;;14.20;99.90;;;14.43;56.38;100770.91;4927523;28;99209;-43
2021/11/21 09:57:33;;;;;;;25.17;16.77;;;13.90;99.90;;;14.15;58.01;100765.22;4928065;28;97219;-42
2021/11/21 10:00:05;;;;;;;22.40;17.03;;;13.50;99.90;;;13.85;59.30;100767.56;4950547;28;96867;-43